Sertaneja, Brazil
Current Conditions -  °F | °C
As of 12:00 AM on Tuesday 23 Dec 2014 (Local Time) from SBLO Reporting Station
Few Clouds Few Clouds  
Wind Chill: 70°   Ceiling: Unl
Heat Index: 70°   Visibility: 6mi
Dew Point: 68°   Wind: 3mph
Humidity: 94%   Direction: 50°NE
Pressure: 29.94"   Gusts: NA
Location:  23.04°S, 50.84°W
Report Text: SBLO 230200Z 05003KT 9999 FEW030 21/20 Q1014
Loading
Personal Weather Stations






























Interactive Weather Map New forecast layout! Learn more

10-Day Weather Forecast

Advertisements
Track Severe Weather on mobile